Time;durP1;ratioP1;P1;durP2;ratioP2;P2;SDS_P1;SDS_P2;PMS_P1;PMS_P2;Temp;Humidity;BMP_temperature;BMP_pressure;BME280_temperature;BME280_humidity;BME280_pressure;Samples;Min_cycle;Max_cycle;Signal;HPM_P1;HPM_P2
2022/10/23 00:02:28;;;;;;;6.70;3.77;;;12.40;99.90;;;;;;10440148;28;20231;-73
2022/10/23 00:07:32;;;;;;;8.27;4.00;;;12.40;99.90;;;;;;10439809;28;20252;-74
2022/10/23 00:12:33;;;;;;;6.07;3.93;;;12.30;99.90;;;;;;10426501;28;20299;-74
2022/10/23 00:17:37;;;;;;;7.47;4.13;;;12.30;99.90;;;;;;10423133;28;20219;-73
2022/10/23 00:22:37;;;;;;;7.50;4.20;;;12.30;99.90;;;;;;10427634;28;20277;-73
2022/10/23 00:27:41;;;;;;;9.60;5.03;;;12.20;99.90;;;;;;10433721;28;20226;-75
2022/10/23 00:32:42;;;;;;;8.07;3.97;;;12.20;99.90;;;;;;10429550;28;20221;-73
2022/10/23 00:37:42;;;;;;;5.97;3.43;;;12.20;99.90;;;;;;10437042;28;20330;-74
2022/10/23 00:42:43;;;;;;;6.30;3.97;;;12.20;99.90;;;;;;10438644;28;20220;-72
2022/10/23 00:47:44;;;;;;;5.73;3.47;;;12.20;99.90;;;;;;10430768;28;20219;-74
2022/10/23 00:52:51;;;;;;;6.53;3.97;;;12.20;99.90;;;;;;10429326;28;20223;-74
2022/10/23 00:57:52;;;;;;;5.33;3.90;;;12.20;99.90;;;;;;10443653;28;20213;-74
2022/10/23 01:02:55;;;;;;;5.83;4.00;;;12.10;99.90;;;;;;10424354;28;20583;-73
2022/10/23 01:08:06;;;;;;;11.33;4.10;;;12.10;99.90;;;;;;10430247;28;20724;-73
2022/10/23 01:13:21;;;;;;;6.83;4.03;;;12.10;99.90;;;;;;10436054;28;20748;-74
2022/10/23 01:18:49;;;;;;;8.90;4.17;;;12.10;99.90;;;;;;10432024;28;20709;-74
2022/10/23 01:23:56;;;;;;;6.33;3.80;;;12.10;99.90;;;;;;10439106;28;20306;-73
2022/10/23 01:29:03;;;;;;;7.47;3.70;;;12.10;99.90;;;;;;10424321;28;20232;-72
2022/10/23 01:34:11;;;;;;;6.47;3.40;;;12.10;99.90;;;;;;10429518;28;20232;-71
2022/10/23 01:39:24;;;;;;;7.10;3.23;;;12.10;99.90;;;;;;10429392;28;20646;-71
2022/10/23 01:44:50;;;;;;;8.73;3.50;;;12.10;99.90;;;;;;10434184;28;20216;-71
2022/10/23 01:49:52;;;;;;;6.10;2.90;;;12.10;99.90;;;;;;10428745;28;20323;-72
2022/10/23 01:54:58;;;;;;;5.93;3.20;;;12.10;99.90;;;;;;10441882;28;20650;-72
2022/10/23 02:00:06;;;;;;;5.20;3.10;;;12.00;99.90;;;;;;10435504;28;20268;-71
2022/10/23 02:05:25;;;;;;;4.20;2.73;;;12.00;99.90;;;;;;10436266;28;20220;-72
2022/10/23 02:10:37;;;;;;;11.10;2.90;;;12.00;99.90;;;;;;10437093;28;20722;-72
2022/10/23 02:15:47;;;;;;;7.63;3.67;;;11.90;99.90;;;;;;10432243;28;20312;-72
2022/10/23 02:20:55;;;;;;;6.90;3.17;;;12.00;99.90;;;;;;10437084;28;20279;-74
2022/10/23 02:26:07;;;;;;;7.87;3.77;;;12.00;99.90;;;;;;10428129;28;20583;-74
2022/10/23 02:31:12;;;;;;;5.30;3.07;;;12.00;99.90;;;;;;10445343;28;20291;-74
2022/10/23 02:36:14;;;;;;;7.70;3.60;;;12.00;99.90;;;;;;10435774;28;20231;-73
2022/10/23 02:41:25;;;;;;;5.10;2.70;;;11.90;99.90;;;;;;10430666;28;20232;-73
2022/10/23 02:46:39;;;;;;;10.03;3.23;;;11.90;99.90;;;;;;10435242;28;20232;-72
2022/10/23 02:51:58;;;;;;;4.87;3.37;;;11.80;99.90;;;;;;10437917;28;20247;-72
2022/10/23 02:57:04;;;;;;;4.60;3.17;;;11.70;99.90;;;;;;10437519;28;20315;-73
2022/10/23 03:02:23;;;;;;;6.63;3.23;;;11.80;99.90;;;;;;10431805;28;20232;-72
2022/10/23 03:07:25;;;;;;;3.87;3.20;;;11.70;99.90;;;;;;10428276;28;20703;-73
2022/10/23 03:12:25;;;;;;;7.60;3.73;;;11.70;99.90;;;;;;10436502;28;20295;-74
2022/10/23 03:17:26;;;;;;;4.70;3.07;;;11.60;99.90;;;;;;10434498;28;20232;-73
2022/10/23 03:22:27;;;;;;;6.57;3.20;;;11.50;99.90;;;;;;10434604;28;20596;-72
2022/10/23 03:27:27;;;;;;;6.30;3.40;;;11.40;99.90;;;;;;10427079;28;20730;-73
2022/10/23 03:32:28;;;;;;;4.43;3.10;;;11.40;99.90;;;;;;10438998;28;20223;-74
2022/10/23 03:37:28;;;;;;;5.53;2.73;;;11.30;99.90;;;;;;10427848;28;20236;-75
2022/10/23 03:42:29;;;;;;;4.97;3.03;;;11.20;99.90;;;;;;10432061;28;20219;-72
2022/10/23 03:47:31;;;;;;;5.30;3.00;;;11.10;99.90;;;;;;10431178;28;20756;-74
2022/10/23 03:52:31;;;;;;;7.73;3.30;;;11.10;99.90;;;;;;10449447;28;20609;-73
2022/10/23 03:57:32;;;;;;;6.23;3.03;;;11.00;99.90;;;;;;10430321;28;20231;-73
2022/10/23 04:02:33;;;;;;;8.20;2.77;;;11.00;99.90;;;;;;10427810;28;20330;-71
2022/10/23 04:07:36;;;;;;;7.50;3.00;;;11.00;99.90;;;;;;10432879;28;20711;-72
2022/10/23 04:12:37;;;;;;;4.83;3.43;;;10.90;99.90;;;;;;10433048;28;20645;-73
2022/10/23 04:17:38;;;;;;;4.80;2.93;;;10.90;99.90;;;;;;10435161;28;20240;-74
2022/10/23 04:22:38;;;;;;;6.23;3.00;;;10.90;99.90;;;;;;10432604;28;20228;-73
2022/10/23 04:27:39;;;;;;;4.63;3.00;;;10.90;99.90;;;;;;10427067;28;20232;-73
2022/10/23 04:32:39;;;;;;;7.50;3.63;;;10.80;99.90;;;;;;10437135;28;20271;-72
2022/10/23 04:37:40;;;;;;;6.17;2.90;;;10.80;99.90;;;;;;10433604;28;20238;-73
2022/10/23 04:42:40;;;;;;;5.80;3.00;;;10.80;99.90;;;;;;10437751;28;20221;-73
2022/10/23 04:47:41;;;;;;;5.57;3.00;;;10.80;99.90;;;;;;10432597;28;20235;-72
2022/10/23 04:52:41;;;;;;;7.73;2.90;;;10.80;99.90;;;;;;10440046;28;20251;-72
2022/10/23 04:57:42;;;;;;;7.30;2.80;;;10.70;99.90;;;;;;10436730;28;20587;-73
2022/10/23 05:02:45;;;;;;;8.40;3.37;;;10.70;99.90;;;;;;10429716;28;20227;-74
2022/10/23 05:07:46;;;;;;;6.23;2.50;;;10.70;99.90;;;;;;10427553;28;20251;-74
2022/10/23 05:12:47;;;;;;;11.10;3.43;;;10.80;99.90;;;;;;10442960;28;20307;-74
2022/10/23 05:17:50;;;;;;;8.10;3.10;;;10.80;99.90;;;;;;10425262;28;20281;-74
2022/10/23 05:22:55;;;;;;;7.73;3.10;;;10.80;99.90;;;;;;10444975;28;20281;-73
2022/10/23 05:27:56;;;;;;;5.77;2.83;;;10.80;99.90;;;;;;10428435;28;20294;-74
2022/10/23 05:32:56;;;;;;;6.67;3.00;;;10.80;99.90;;;;;;10444088;28;20646;-73
2022/10/23 05:37:59;;;;;;;4.27;2.63;;;10.80;99.90;;;;;;10449240;28;20229;-74
2022/10/23 05:42:59;;;;;;;2.53;2.33;;;10.80;99.90;;;;;;10444637;28;20231;-74
2022/10/23 05:48:03;;;;;;;5.37;3.30;;;10.80;99.90;;;;;;10433825;28;20248;-74
2022/10/23 05:53:04;;;;;;;6.70;2.93;;;10.80;99.90;;;;;;10442300;28;20243;-75
2022/10/23 05:58:04;;;;;;;6.20;3.30;;;10.80;99.90;;;;;;10446410;28;20231;-73
2022/10/23 06:03:05;;;;;;;8.17;3.33;;;10.80;99.90;;;;;;10440123;28;20207;-72
2022/10/23 06:08:05;;;;;;;4.03;2.60;;;10.70;99.90;;;;;;10436932;28;20224;-72
2022/10/23 06:13:06;;;;;;;5.47;2.90;;;10.70;99.90;;;;;;10436743;28;20247;-73
2022/10/23 06:18:07;;;;;;;4.63;3.17;;;10.70;99.90;;;;;;10438711;28;20219;-74
2022/10/23 06:23:11;;;;;;;5.63;2.83;;;10.80;99.90;;;;;;10444235;28;20223;-74
2022/10/23 06:28:11;;;;;;;6.97;3.20;;;10.90;99.90;;;;;;10430258;28;20240;-75
2022/10/23 06:33:15;;;;;;;4.20;3.03;;;11.00;99.90;;;;;;10433608;28;20309;-75
2022/10/23 06:38:15;;;;;;;9.13;3.23;;;11.20;99.90;;;;;;10410757;28;20227;-75
2022/10/23 06:43:16;;;;;;;8.47;3.60;;;11.40;99.90;;;;;;10397413;28;20232;-74
2022/10/23 06:48:16;;;;;;;7.17;3.50;;;11.60;99.90;;;;;;10393416;28;20251;-74
2022/10/23 06:53:17;;;;;;;4.57;3.47;;;11.90;99.90;;;;;;10410084;28;20243;-72
2022/10/23 06:58:19;;;;;;;6.77;3.60;;;12.30;99.90;;;;;;10387877;28;20267;-74
2022/10/23 07:03:20;;;;;;;3.97;2.93;;;12.60;99.90;;;;;;10403241;28;20216;-73
2022/10/23 07:08:21;;;;;;;4.30;3.10;;;12.80;99.90;;;;;;10412349;28;20604;-73
2022/10/23 07:13:23;;;;;;;9.57;3.80;;;13.20;99.90;;;;;;10446731;28;20228;-73
2022/10/23 07:18:24;;;;;;;6.90;2.70;;;13.90;99.90;;;;;;10428475;28;20213;-73
2022/10/23 07:23:25;;;;;;;8.47;3.93;;;14.40;99.90;;;;;;10440839;28;20269;-72
2022/10/23 07:28:25;;;;;;;9.03;5.10;;;14.60;99.90;;;;;;10442442;28;20699;-73
2022/10/23 07:33:26;;;;;;;6.13;3.47;;;15.00;99.90;;;;;;10441409;28;20295;-71
2022/10/23 07:38:27;;;;;;;5.83;3.00;;;15.50;99.90;;;;;;10443334;28;20638;-73
2022/10/23 07:43:27;;;;;;;4.47;2.87;;;17.40;99.90;;;;;;10405093;28;20586;-74
2022/10/23 07:48:28;;;;;;;8.60;3.27;;;19.10;99.90;;;;;;10398936;28;20237;-73
2022/10/23 07:53:29;;;;;;;8.70;3.17;;;21.20;99.90;;;;;;10419001;28;20319;-73
2022/10/23 07:58:30;;;;;;;5.77;2.70;;;22.70;99.90;;;;;;10435473;28;20341;-74
2022/10/23 08:03:32;;;;;;;5.77;3.17;;;23.90;99.90;;;;;;10441805;28;20300;-73
2022/10/23 08:08:33;;;;;;;5.90;2.80;;;24.40;99.90;;;;;;10435113;28;20231;-74
2022/10/23 08:13:33;;;;;;;8.00;3.60;;;25.20;97.70;;;;;;10434849;28;20234;-72
2022/10/23 08:18:34;;;;;;;5.67;2.50;;;25.00;94.60;;;;;;10400925;28;20852;-74
2022/10/23 08:23:34;;;;;;;6.00;2.63;;;24.30;96.10;;;;;;10396027;28;20234;-75
2022/10/23 08:28:35;;;;;;;9.17;4.07;;;23.10;99.10;;;;;;10384668;28;20311;-73
2022/10/23 08:33:37;;;;;;;5.00;3.13;;;23.70;98.90;;;;;;10393544;28;20319;-75
2022/10/23 08:38:37;;;;;;;6.47;2.70;;;24.80;96.10;;;;;;10390661;28;20220;-74
2022/10/23 08:43:45;;;;;;;6.17;3.37;;;24.80;94.70;;;;;;10396919;28;20228;-76
2022/10/23 08:48:52;;;;;;;7.37;2.80;;;25.00;93.60;;;;;;10398433;28;20263;-75
2022/10/23 08:54:21;;;;;;;6.03;2.80;;;24.60;94.00;;;;;;10424708;28;20231;-73
2022/10/23 08:59:38;;;;;;;6.80;2.80;;;24.30;95.30;;;;;;10429574;28;20219;-76
2022/10/23 09:04:40;;;;;;;4.40;2.10;;;24.20;95.70;;;;;;10401401;28;20228;-77
2022/10/23 09:10:07;;;;;;;5.80;2.60;;;24.60;94.90;;;;;;10392079;28;20770;-74
2022/10/23 09:15:29;;;;;;;8.00;3.10;;;25.10;95.00;;;;;;10433251;28;20242;-75
2022/10/23 09:20:34;;;;;;;4.13;2.60;;;23.60;96.90;;;;;;10399678;28;20227;-77
2022/10/23 09:25:39;;;;;;;7.73;3.00;;;22.30;99.70;;;;;;10396862;28;20223;-77
2022/10/23 09:30:41;;;;;;;8.00;3.30;;;21.40;99.90;;;;;;10393293;28;20305;-78
2022/10/23 09:36:01;;;;;;;9.23;2.90;;;21.00;99.90;;;;;;10388720;28;20219;-75
2022/10/23 09:41:30;;;;;;;5.27;2.90;;;21.30;99.90;;;;;;10395392;28;20255;-76
2022/10/23 09:46:57;;;;;;;4.60;2.40;;;21.60;99.90;;;;;;10402312;28;20223;-74
2022/10/23 09:52:00;;;;;;;5.67;2.37;;;21.70;99.90;;;;;;10412907;28;20253;-76
2022/10/23 09:57:29;;;;;;;5.07;2.30;;;21.70;99.90;;;;;;10408376;28;20262;-75
2022/10/23 10:02:35;;;;;;;3.97;2.20;;;20.60;99.90;;;;;;10393511;28;20227;-75
2022/10/23 10:07:35;;;;;;;3.17;1.90;;;19.90;99.90;;;;;;10390341;28;20225;-75
2022/10/23 10:13:02;;;;;;;5.23;1.90;;;19.80;99.90;;;;;;10387321;28;20298;-76
2022/10/23 10:18:16;;;;;;;6.53;2.50;;;19.70;99.90;;;;;;10385301;28;20239;-74
2022/10/23 10:23:43;;;;;;;2.87;1.77;;;19.20;99.90;;;;;;10404468;28;20277;-75
2022/10/23 10:28:55;;;;;;;4.73;2.40;;;18.70;99.90;;;;;;10394650;28;20252;-74
2022/10/23 10:34:20;;;;;;;6.37;2.70;;;18.30;99.90;;;;;;10418073;28;20240;-75
2022/10/23 10:40:18;;;;;;;4.80;2.87;;;18.10;99.90;;;;;;10410589;28;20212;-75
2022/10/23 10:45:29;;;;;;;4.23;2.50;;;18.10;99.90;;;;;;10418059;28;20224;-74
2022/10/23 10:50:49;;;;;;;6.67;2.20;;;18.20;99.90;;;;;;10429062;28;20233;-75
2022/10/23 10:55:54;;;;;;;6.60;2.60;;;18.20;99.90;;;;;;10397510;28;20236;-75
2022/10/23 11:00:57;;;;;;;7.70;2.50;;;18.00;99.90;;;;;;10437114;28;20233;-74
2022/10/23 11:05:59;;;;;;;5.80;2.53;;;18.00;99.90;;;;;;10432140;28;20221;-73
2022/10/23 11:11:25;;;;;;;5.53;2.90;;;18.20;99.90;;;;;;10428423;28;20586;-74
2022/10/23 11:16:35;;;;;;;6.67;2.20;;;18.50;99.90;;;;;;10388760;28;20266;-70
2022/10/23 11:22:10;;;;;;;4.17;2.40;;;19.40;99.90;;;;;;10412540;28;20229;-72
2022/10/23 11:27:44;;;;;;;7.13;2.30;;;20.30;99.90;;;;;;10420499;28;20326;-68
2022/10/23 11:33:03;;;;;;;4.87;2.23;;;20.70;99.90;;;;;;10401985;28;20226;-70
2022/10/23 11:38:39;;;;;;;6.43;2.03;;;20.70;99.90;;;;;;10399515;28;20230;-68
2022/10/23 11:44:02;;;;;;;6.70;2.30;;;20.80;99.90;;;;;;10391343;28;20262;-71
2022/10/23 11:49:17;;;;;;;5.47;2.50;;;20.50;99.90;;;;;;10427613;28;20713;-69
2022/10/23 11:54:24;;;;;;;5.77;2.07;;;20.50;99.90;;;;;;10398227;28;20222;-70
2022/10/23 11:59:30;;;;;;;4.13;1.93;;;20.80;99.90;;;;;;10387160;28;20223;-70
2022/10/23 12:04:52;;;;;;;7.23;2.30;;;21.30;99.90;;;;;;10390581;28;20231;-70
2022/10/23 12:10:17;;;;;;;4.57;1.87;;;21.60;99.90;;;;;;10399178;28;20316;-69
2022/10/23 12:15:22;;;;;;;6.10;2.20;;;21.00;99.90;;;;;;10427699;28;20712;-68
2022/10/23 12:20:37;;;;;;;9.77;2.07;;;20.40;99.90;;;;;;10392743;28;20183;-68
2022/10/23 12:25:52;;;;;;;6.67;1.80;;;20.00;99.90;;;;;;10384112;28;20224;-67
2022/10/23 12:31:01;;;;;;;7.17;2.10;;;19.70;99.90;;;;;;10399264;28;20226;-67
2022/10/23 12:36:21;;;;;;;5.97;1.90;;;19.40;99.90;;;;;;10385953;28;20639;-69
2022/10/23 12:41:25;;;;;;;3.57;1.53;;;19.40;99.90;;;;;;10384723;28;20249;-69
2022/10/23 12:46:42;;;;;;;3.37;1.67;;;19.60;99.90;;;;;;10397315;28;20225;-68
2022/10/23 12:51:53;;;;;;;2.67;1.67;;;19.70;99.90;;;;;;10393845;28;20222;-70
2022/10/23 12:56:54;;;;;;;4.43;1.90;;;19.50;99.90;;;;;;10387462;28;20240;-68
2022/10/23 13:01:54;;;;;;;3.40;1.80;;;19.60;99.90;;;;;;10380868;28;20688;-70
2022/10/23 13:06:58;;;;;;;6.13;2.30;;;19.90;99.90;;;;;;10389696;28;20234;-68
2022/10/23 13:12:02;;;;;;;4.70;2.13;;;20.30;99.90;;;;;;10393598;28;20269;-73
2022/10/23 13:17:05;;;;;;;3.80;1.80;;;20.50;99.90;;;;;;10394465;28;20233;-75
2022/10/23 13:22:20;;;;;;;6.40;1.87;;;20.60;99.90;;;;;;10396812;28;20223;-75
2022/10/23 13:27:38;;;;;;;5.70;2.00;;;20.70;99.90;;;;;;10388496;28;20590;-74
2022/10/23 13:32:39;;;;;;;3.43;1.70;;;20.80;99.90;;;;;;10399302;28;20267;-76
2022/10/23 13:37:40;;;;;;;3.33;2.07;;;20.80;99.90;;;;;;10389396;28;20289;-74
2022/10/23 13:42:40;;;;;;;5.50;1.93;;;20.80;99.90;;;;;;10389772;28;20311;-77
2022/10/23 13:47:41;;;;;;;2.33;1.60;;;20.90;99.90;;;;;;10396238;28;20219;-75
2022/10/23 13:52:41;;;;;;;4.37;2.20;;;20.80;99.90;;;;;;10405070;28;20234;-74
2022/10/23 13:57:42;;;;;;;5.83;2.03;;;20.80;99.90;;;;;;10400385;28;20234;-74
2022/10/23 14:02:43;;;;;;;4.00;2.07;;;20.80;99.90;;;;;;10393947;28;20223;-75
2022/10/23 14:07:59;;;;;;;3.97;1.83;;;20.70;99.90;;;;;;10382613;28;20236;-77
2022/10/23 14:12:59;;;;;;;6.03;2.13;;;20.60;99.90;;;;;;10408003;28;20221;-76
2022/10/23 14:18:00;;;;;;;4.60;2.20;;;20.50;99.90;;;;;;10402099;28;20242;-75
2022/10/23 14:23:01;;;;;;;4.23;2.00;;;20.40;99.90;;;;;;10405240;28;20219;-74
2022/10/23 14:28:02;;;;;;;3.03;2.23;;;20.30;99.90;;;;;;10396949;28;20227;-77
2022/10/23 14:33:03;;;;;;;4.07;2.07;;;20.20;99.90;;;;;;10396514;28;20409;-76
2022/10/23 14:38:03;;;;;;;4.00;2.00;;;20.10;99.90;;;;;;10399886;28;20231;-76
2022/10/23 14:43:04;;;;;;;8.07;2.70;;;20.00;99.90;;;;;;10422488;28;20279;-73
2022/10/23 14:48:08;;;;;;;4.97;2.40;;;19.80;99.90;;;;;;10440524;28;20321;-72
2022/10/23 14:53:09;;;;;;;3.23;2.50;;;19.70;99.90;;;;;;10441488;28;20241;-72
2022/10/23 14:58:10;;;;;;;4.53;2.00;;;19.50;99.90;;;;;;10441595;28;20345;-72
2022/10/23 15:03:10;;;;;;;3.17;2.10;;;19.30;99.90;;;;;;10406421;28;20595;-72
2022/10/23 15:08:11;;;;;;;5.47;2.37;;;19.00;99.90;;;;;;10399743;28;20230;-72
2022/10/23 15:13:11;;;;;;;7.87;2.33;;;18.80;99.90;;;;;;10392950;28;20250;-71
2022/10/23 15:18:12;;;;;;;2.90;2.13;;;18.80;99.90;;;;;;10399416;28;20222;-71
2022/10/23 15:23:13;;;;;;;7.73;2.57;;;18.70;99.90;;;;;;10396833;28;20626;-71
2022/10/23 15:28:13;;;;;;;5.97;2.80;;;18.70;99.90;;;;;;10403581;28;20218;-71
2022/10/23 15:33:14;;;;;;;3.40;2.43;;;18.60;99.90;;;;;;10392888;28;20287;-70
2022/10/23 15:38:15;;;;;;;4.57;2.70;;;18.50;99.90;;;;;;10391522;28;20261;-71
2022/10/23 15:43:16;;;;;;;6.63;3.10;;;18.30;99.90;;;;;;10390972;28;20587;-70
2022/10/23 15:48:17;;;;;;;4.63;2.50;;;18.20;99.90;;;;;;10393355;28;20471;-71
2022/10/23 15:53:17;;;;;;;8.87;3.03;;;18.00;99.90;;;;;;10391023;28;20560;-70
2022/10/23 15:58:18;;;;;;;6.73;2.63;;;18.00;99.90;;;;;;10391960;28;20574;-69
2022/10/23 16:03:18;;;;;;;5.57;2.40;;;17.80;99.90;;;;;;10385515;28;20218;-72
2022/10/23 16:08:19;;;;;;;5.33;2.53;;;17.70;99.90;;;;;;10392443;28;20280;-70
2022/10/23 16:13:19;;;;;;;3.43;2.43;;;17.70;99.90;;;;;;10413677;28;20291;-70
2022/10/23 16:18:22;;;;;;;8.83;2.90;;;17.50;99.90;;;;;;10402893;28;20225;-71
2022/10/23 16:23:22;;;;;;;5.40;3.07;;;17.40;99.90;;;;;;10383238;28;20272;-70
2022/10/23 16:28:23;;;;;;;4.97;2.77;;;17.30;99.90;;;;;;10405392;28;20305;-72
2022/10/23 16:33:24;;;;;;;8.20;2.83;;;17.30;99.90;;;;;;10389554;28;20229;-68
2022/10/23 16:38:24;;;;;;;5.43;3.20;;;17.30;99.90;;;;;;10393046;28;20229;-69
2022/10/23 16:43:25;;;;;;;11.40;3.63;;;17.30;99.90;;;;;;10400885;28;20566;-70
2022/10/23 16:48:27;;;;;;;7.47;4.03;;;17.20;99.90;;;;;;10412590;28;20516;-69
2022/10/23 16:53:29;;;;;;;12.37;4.60;;;17.20;99.90;;;;;;10436502;28;20224;-71
2022/10/23 16:58:30;;;;;;;7.93;4.70;;;17.20;99.90;;;;;;10442301;28;20221;-70
2022/10/23 17:03:36;;;;;;;10.03;5.23;;;17.10;99.90;;;;;;10441461;28;20249;-71
2022/10/23 17:08:38;;;;;;;8.17;5.47;;;17.20;99.90;;;;;;10432281;28;20228;-72
2022/10/23 17:14:00;;;;;;;12.43;5.03;;;17.20;99.90;;;;;;10440948;28;20216;-69
2022/10/23 17:19:01;;;;;;;12.13;5.93;;;17.20;99.90;;;;;;10440975;28;20873;-70
2022/10/23 17:24:03;;;;;;;7.85;5.65;;;17.20;99.90;;;;;;10443371;28;20471;-71
2022/10/23 17:29:07;;;;;;;8.77;5.60;;;17.20;99.90;;;;;;10448372;28;20213;-75
2022/10/23 17:34:12;;;;;;;8.30;6.03;;;17.10;99.90;;;;;;10447908;28;20695;-76
2022/10/23 17:39:54;;;;;;;18.27;5.97;;;17.20;99.90;;;;;;10423699;28;20223;-75
2022/10/23 17:44:54;;;;;;;14.07;5.43;;;17.10;99.90;;;;;;10449508;28;20751;-77
2022/10/23 17:49:55;;;;;;;11.67;4.80;;;16.90;99.90;;;;;;10432388;28;20216;-77
2022/10/23 17:54:55;;;;;;;10.53;4.30;;;16.80;99.90;;;;;;10393978;28;20667;-77
2022/10/23 17:59:56;;;;;;;11.50;4.30;;;16.70;99.90;;;;;;10401690;28;20226;-77
2022/10/23 18:04:56;;;;;;;11.03;4.10;;;16.70;99.90;;;;;;10389062;28;20239;-78
2022/10/23 18:09:57;;;;;;;10.50;4.10;;;16.60;99.90;;;;;;10398025;28;20606;-78
2022/10/23 18:14:59;;;;;;;10.70;4.07;;;16.60;99.90;;;;;;10393057;28;20213;-76
2022/10/23 18:20:00;;;;;;;11.40;4.40;;;16.50;99.90;;;;;;10452596;28;20216;-78
2022/10/23 18:25:02;;;;;;;12.40;4.40;;;16.50;99.90;;;;;;10438858;28;20221;-78
2022/10/23 18:30:03;;;;;;;10.53;4.30;;;16.50;99.90;;;;;;10412077;28;20224;-79
2022/10/23 18:35:04;;;;;;;11.53;4.03;;;16.40;99.90;;;;;;10438280;28;20651;-79
2022/10/23 18:40:05;;;;;;;14.93;4.23;;;16.40;99.90;;;;;;10441238;28;20236;-75
2022/10/23 18:45:06;;;;;;;12.57;4.63;;;16.40;99.90;;;;;;10435764;28;20655;-79
2022/10/23 18:50:08;;;;;;;10.97;4.80;;;16.30;99.90;;;;;;10433741;28;20188;-78
2022/10/23 18:55:09;;;;;;;11.30;5.13;;;16.30;99.90;;;;;;10422315;28;20304;-78
2022/10/23 19:00:11;;;;;;;9.37;4.40;;;16.30;99.90;;;;;;10436605;28;20302;-79
2022/10/23 19:05:15;;;;;;;11.90;5.13;;;16.20;99.90;;;;;;10442622;28;20184;-79
2022/10/23 19:10:18;;;;;;;7.23;4.50;;;16.20;99.90;;;;;;10440209;28;20191;-78
2022/10/23 19:15:19;;;;;;;6.23;4.30;;;16.20;99.90;;;;;;10435807;28;20219;-77
2022/10/23 19:20:21;;;;;;;9.43;4.13;;;16.10;99.90;;;;;;10432962;28;20599;-78
2022/10/23 19:25:28;;;;;;;7.70;4.17;;;16.00;99.90;;;;;;10435023;28;20201;-76
2022/10/23 19:30:29;;;;;;;12.93;4.73;;;15.90;99.90;;;;;;10425118;28;20926;-79
2022/10/23 19:35:32;;;;;;;14.43;4.93;;;15.80;99.90;;;;;;10433194;28;20231;-78
2022/10/23 19:40:36;;;;;;;8.77;3.90;;;15.80;99.90;;;;;;10438152;28;20224;-76
2022/10/23 19:45:37;;;;;;;11.97;3.87;;;15.80;99.90;;;;;;10436213;28;20289;-77
2022/10/23 19:50:40;;;;;;;9.17;3.60;;;15.80;99.90;;;;;;10435589;28;20273;-78
2022/10/23 19:55:49;;;;;;;8.93;3.93;;;15.90;99.90;;;;;;10431261;28;20242;-78
2022/10/23 20:01:22;;;;;;;14.20;3.70;;;16.00;99.90;;;;;;10421822;28;20216;-76
2022/10/23 20:06:28;;;;;;;7.47;3.50;;;16.10;99.90;;;;;;10432746;28;20694;-78
2022/10/23 20:11:30;;;;;;;11.13;3.83;;;16.20;99.90;;;;;;10439837;28;20242;-77
2022/10/23 20:16:34;;;;;;;6.67;3.40;;;16.20;99.90;;;;;;10439643;28;20247;-75
2022/10/23 20:21:36;;;;;;;10.60;4.20;;;16.20;99.90;;;;;;10432827;28;20295;-75
2022/10/23 20:26:42;;;;;;;9.77;3.47;;;16.20;99.90;;;;;;10435852;28;20216;-77
2022/10/23 20:31:43;;;;;;;12.33;3.70;;;16.30;99.90;;;;;;10420103;28;20223;-77
2022/10/23 20:36:46;;;;;;;8.13;3.97;;;16.30;99.90;;;;;;10439219;28;20577;-75
2022/10/23 20:41:47;;;;;;;10.60;3.60;;;16.30;99.90;;;;;;10444908;28;20250;-77
2022/10/23 20:46:48;;;;;;;10.13;3.67;;;16.20;99.90;;;;;;10428157;28;20244;-78
2022/10/23 20:51:54;;;;;;;11.47;4.13;;;16.20;99.90;;;;;;10427713;28;20219;-79
2022/10/23 20:56:55;;;;;;;9.40;3.47;;;16.20;99.90;;;;;;10435525;28;20232;-78
2022/10/23 21:01:56;;;;;;;7.33;3.47;;;16.20;99.90;;;;;;10435439;28;20212;-78
2022/10/23 21:06:57;;;;;;;9.23;3.83;;;16.10;99.90;;;;;;10436292;28;20314;-77
2022/10/23 21:11:58;;;;;;;11.70;3.63;;;16.00;99.90;;;;;;10431143;28;20232;-76
2022/10/23 21:17:00;;;;;;;9.90;3.50;;;16.00;99.90;;;;;;10430302;28;20314;-79
2022/10/23 21:22:01;;;;;;;10.77;3.70;;;15.90;99.90;;;;;;10430796;28;20227;-81
2022/10/23 21:27:02;;;;;;;8.67;3.80;;;15.90;99.90;;;;;;10445763;28;20216;-78
2022/10/23 21:32:02;;;;;;;6.43;3.37;;;15.90;99.90;;;;;;10435737;28;20231;-77
2022/10/23 21:37:03;;;;;;;12.53;3.60;;;15.90;99.90;;;;;;10441037;28;20235;-75
2022/10/23 21:42:04;;;;;;;10.53;3.17;;;15.90;99.90;;;;;;10436133;28;20231;-75
2022/10/23 21:47:05;;;;;;;7.57;3.30;;;15.90;99.90;;;;;;10436578;28;20223;-77
2022/10/23 21:52:06;;;;;;;10.70;3.73;;;15.80;99.90;;;;;;10432374;28;20221;-76
2022/10/23 21:57:13;;;;;;;12.73;2.80;;;15.80;99.90;;;;;;10432014;28;20231;-76
2022/10/23 22:02:13;;;;;;;10.93;2.80;;;15.90;99.90;;;;;;10422802;28;20786;-76
2022/10/23 22:07:14;;;;;;;9.07;3.47;;;15.90;99.90;;;;;;10428390;28;20238;-76
2022/10/23 22:12:14;;;;;;;6.23;2.80;;;15.80;99.90;;;;;;10427846;28;20266;-76
2022/10/23 22:17:15;;;;;;;7.23;2.90;;;15.80;99.90;;;;;;10447349;28;20244;-77
2022/10/23 22:22:16;;;;;;;9.17;2.60;;;15.90;99.90;;;;;;10446033;28;20231;-76
2022/10/23 22:27:16;;;;;;;5.00;2.73;;;15.90;99.90;;;;;;10448657;28;20219;-76
2022/10/23 22:32:17;;;;;;;7.60;3.10;;;15.80;99.90;;;;;;10443745;28;20641;-75
2022/10/23 22:37:17;;;;;;;10.23;2.97;;;15.70;99.90;;;;;;10445681;28;20706;-75
2022/10/23 22:42:19;;;;;;;7.77;2.97;;;15.60;99.90;;;;;;10451158;28;20230;-76
2022/10/23 22:47:22;;;;;;;7.13;2.63;;;15.50;99.90;;;;;;10444599;28;20771;-76
2022/10/23 22:52:23;;;;;;;10.33;3.47;;;15.50;99.90;;;;;;10444695;28;20721;-76
2022/10/23 22:57:27;;;;;;;10.43;3.07;;;15.40;99.90;;;;;;10444525;28;20414;-76
2022/10/23 23:02:27;;;;;;;7.23;3.00;;;15.40;99.90;;;;;;10443318;28;20561;-75
2022/10/23 23:07:28;;;;;;;8.63;3.20;;;15.30;99.90;;;;;;10447117;28;20242;-73
2022/10/23 23:12:28;;;;;;;8.70;3.00;;;15.30;99.90;;;;;;10448659;28;20695;-73
2022/10/23 23:17:29;;;;;;;6.80;3.03;;;15.20;99.90;;;;;;10442044;28;20315;-74
2022/10/23 23:22:29;;;;;;;6.73;2.80;;;15.10;99.90;;;;;;10436317;28;20303;-74
2022/10/23 23:27:30;;;;;;;7.27;3.10;;;15.10;99.90;;;;;;10443243;28;20565;-73
2022/10/23 23:32:30;;;;;;;9.93;3.30;;;14.90;99.90;;;;;;10443408;28;20763;-72
2022/10/23 23:37:31;;;;;;;8.53;3.30;;;14.80;99.90;;;;;;10434812;28;20255;-75
2022/10/23 23:42:31;;;;;;;7.50;3.60;;;14.70;99.90;;;;;;10443079;28;20231;-75
2022/10/23 23:47:32;;;;;;;10.43;3.40;;;14.60;99.90;;;;;;10439532;28;20216;-76
2022/10/23 23:52:33;;;;;;;7.13;2.93;;;14.50;99.90;;;;;;10436357;28;20913;-76
2022/10/23 23:57:33;;;;;;;12.73;4.07;;;14.40;99.90;;;;;;10434917;28;20220;-77
